Flugplatz Alt-Neuötting Sonderlandeplatz (UL)

Hier findest Du alle Informationen zum Flugplatz Alt-Neuötting Sonderlandeplatz (UL).

Informationen für Piloten zum Flugplatz Alt-Neuötting Sonderlandeplatz

Hier findest Du alle relevanten Informationen, die Du als Pilot benötigst, um Alt-Neuötting Sonderlandeplatz anzufliegen.

Flugplatz: Alt-Neuötting Sonderlandeplatz ICAO-Code: UL Flugplatz
Frequenz Turm: 123.500 Mhz GAFOR Gebiet: -
Frequenz Ground: 123.500 Mhz Mogas: ja
Platzrunde: N 2000 ft Landegebühr: 2 €
Platzhöhe: Sunrise: 03:12 Uhr UTC
Pisten: 09/27 - 480 m x 24 m, GRAS Sunset: 19:14 Uhr UTC

Mitglieder, die in Alt-Neuötting Sonderlandeplatz fliegen

Flugwetter am Flugplatz Alt-Neuötting Sonderlandeplatz

Die METAR Information stammen aus EDDM (65.62 km entfernt).

METAR Code:
2022/06/01 09:20
EDDM 010920Z AUTO 27008KT 240V300 CAVOK 20/10 Q1016 NOSIG

Flugschulen am Flugplatz Alt-Neuötting Sonderlandeplatz

Am Flugplatz Alt-Neuötting Sonderlandeplatz gibt es leider keine Flugschule.

Benachbarte Flugplätze und Flugschulen

Es gibt 11 weitere Flugplätze in einem Umkreis von 50 km um den Flugplatz Alt-Neuötting Sonderlandeplatz.

Jetzt anmelden

Passwort vergessen

Umfrage Archiv

Sendet Ihr ADS-B und/oder FLARM?

Ja
83.1 %
Nein
16.9 %
Stimmen: 177 | Diskussion
Anzeige: Roland Aircraft
Statistik Alle Mitglieder

Aktuell sind 48 Besucher online.

Anzeige: ULPower Aero Engines Anzeige: Pocket FMS